Time;durP1;ratioP1;P1;durP2;ratioP2;P2;SDS_P1;SDS_P2;PMS_P1;PMS_P2;Temp;Humidity;BMP_temperature;BMP_pressure;BME280_temperature;BME280_humidity;BME280_pressure;Samples;Min_cycle;Max_cycle;Signal;HPM_P1;HPM_P2
2020/12/13 00:02:21;;;;;;;28.08;13.00;;;6.70;99.90;;;;;;5096665;28;20040;-82
2020/12/13 00:04:50;;;;;;;25.73;12.38;;;6.40;99.90;;;;;;5093554;28;20489;-81
2020/12/13 00:07:17;;;;;;;28.13;13.00;;;;;;;;;;5095214;28;20040;-81
2020/12/13 00:09:43;;;;;;;27.67;13.20;;;6.60;99.90;;;;;;5095741;28;20051;-81
2020/12/13 00:12:09;;;;;;;25.38;12.23;;;6.60;99.90;;;;;;5093075;28;20041;-81
2020/12/13 00:14:35;;;;;;;29.52;13.20;;;6.60;99.90;;;;;;5081750;28;20039;-81
2020/12/13 00:17:01;;;;;;;26.45;12.80;;;6.70;99.90;;;;;;5098978;28;20091;-81
2020/12/13 00:19:27;;;;;;;27.33;13.48;;;6.80;99.90;;;;;;5096535;28;20047;-81
2020/12/13 00:21:54;;;;;;;23.65;11.93;;;6.80;99.90;;;;;;5097356;28;20554;-81
2020/12/13 00:24:22;;;;;;;21.65;11.45;;;6.90;99.90;;;;;;5096698;28;20122;-81
2020/12/13 00:26:47;;;;;;;22.85;12.13;;;6.90;99.90;;;;;;5098579;28;20405;-82
2020/12/13 00:29:15;;;;;;;23.08;11.88;;;7.00;99.90;;;;;;5097890;28;20039;-81
2020/12/13 00:31:41;;;;;;;23.02;11.65;;;7.00;99.90;;;;;;5098465;28;20440;-81
2020/12/13 00:34:07;;;;;;;27.17;12.50;;;7.00;99.90;;;;;;5096993;28;20036;-81
2020/12/13 00:36:33;;;;;;;30.58;13.75;;;7.00;99.90;;;;;;5096928;28;20157;-81
2020/12/13 00:38:59;;;;;;;30.05;12.98;;;7.00;99.90;;;;;;5097869;28;20043;-81
2020/12/13 00:41:25;;;;;;;25.65;13.27;;;6.90;99.90;;;;;;5097146;28;20032;-83
2020/12/13 00:43:51;;;;;;;29.00;13.48;;;6.90;99.90;;;;;;5099947;28;20074;-82
2020/12/13 00:46:17;;;;;;;29.23;13.38;;;6.90;99.90;;;;;;5098406;28;20035;-82
2020/12/13 00:48:42;;;;;;;30.25;14.07;;;6.90;99.90;;;;;;5098650;28;20071;-82
2020/12/13 00:51:08;;;;;;;37.15;15.35;;;;;;;;;;5097015;28;20040;-81
2020/12/13 00:53:34;;;;;;;32.90;15.00;;;6.60;99.90;;;;;;5099390;28;20081;-82
2020/12/13 00:55:59;;;;;;;32.90;15.05;;;6.60;99.90;;;;;;5098462;28;20032;-81
2020/12/13 00:58:26;;;;;;;30.83;14.60;;;6.60;99.90;;;;;;5096089;28;20043;-83
2020/12/13 01:00:51;;;;;;;34.72;14.85;;;6.50;99.90;;;;;;5088294;28;20048;-83
2020/12/13 01:03:17;;;;;;;33.63;15.52;;;6.50;99.90;;;;;;5076751;28;20054;-83
2020/12/13 01:05:43;;;;;;;30.40;13.65;;;6.60;99.90;;;;;;5075127;28;20071;-82
2020/12/13 01:08:09;;;;;;;34.17;15.52;;;6.60;99.90;;;;;;5079727;28;20489;-83
2020/12/13 01:10:34;;;;;;;26.30;13.35;;;6.70;99.90;;;;;;5096183;28;20446;-83
2020/12/13 01:13:00;;;;;;;31.88;14.48;;;6.60;99.90;;;;;;5096479;28;20408;-81
2020/12/13 01:15:26;;;;;;;29.45;13.93;;;6.70;99.90;;;;;;5098303;28;20044;-81
2020/12/13 01:17:53;;;;;;;30.02;14.23;;;6.70;99.90;;;;;;5098074;28;20063;-82
2020/12/13 01:20:20;;;;;;;30.85;14.52;;;6.80;99.90;;;;;;5097552;28;20566;-82
2020/12/13 01:22:48;;;;;;;31.85;14.43;;;6.80;99.90;;;;;;5097640;28;20060;-82
2020/12/13 01:25:14;;;;;;;32.08;13.40;;;6.80;99.90;;;;;;5096973;28;20126;-82
2020/12/13 01:27:40;;;;;;;34.42;14.20;;;6.80;99.90;;;;;;5097393;28;20449;-81
2020/12/13 01:30:07;;;;;;;28.42;13.52;;;6.90;99.90;;;;;;5096786;28;20142;-82
2020/12/13 01:32:37;;;;;;;32.83;13.80;;;6.90;99.90;;;;;;5096986;28;20040;-82
2020/12/13 01:35:04;;;;;;;34.75;15.23;;;6.90;99.90;;;;;;5097220;28;20143;-82
2020/12/13 01:37:29;;;;;;;28.60;14.38;;;6.80;99.90;;;;;;5097517;28;20062;-83
2020/12/13 01:39:55;;;;;;;36.67;15.25;;;6.90;99.90;;;;;;5095818;28;20111;-83
2020/12/13 01:42:21;;;;;;;30.90;14.85;;;;;;;;;;5097455;28;20482;-83
2020/12/13 01:44:46;;;;;;;32.92;15.10;;;6.90;99.90;;;;;;5096210;28;20044;-81
2020/12/13 01:47:12;;;;;;;33.55;16.48;;;6.90;99.90;;;;;;5095752;28;20044;-82
2020/12/13 01:49:45;;;;;;;35.75;15.23;;;;;;;;;;5096332;28;20392;-81
2020/12/13 01:55:01;;;;;;;35.33;15.48;;;6.80;99.90;;;;;;5097362;28;20499;-82
2020/12/13 01:57:32;;;;;;;32.47;15.77;;;6.90;99.90;;;;;;5099524;28;20089;-81
2020/12/13 02:00:04;;;;;;;31.45;14.65;;;7.00;99.90;;;;;;5099578;28;20090;-82
2020/12/13 02:02:34;;;;;;;31.65;14.95;;;7.00;99.90;;;;;;5099560;28;20085;-82
2020/12/13 02:05:02;;;;;;;;;;;7.00;99.90;;;;;;5101665;28;20044;-81
2020/12/13 02:07:28;;;;;;;27.27;13.88;;;;;;;;;;5100981;28;19949;-81
2020/12/13 02:09:54;;;;;;;30.75;14.05;;;6.90;99.90;;;;;;5100001;28;20047;-83
2020/12/13 02:12:20;;;;;;;34.20;16.10;;;6.90;99.90;;;;;;5101859;28;20406;-81
2020/12/13 02:14:45;;;;;;;31.08;14.40;;;6.90;99.90;;;;;;5100389;28;20443;-83
2020/12/13 02:17:11;;;;;;;31.17;14.95;;;6.90;99.90;;;;;;5102056;28;20071;-82
2020/12/13 02:19:37;;;;;;;31.48;14.40;;;6.90;99.90;;;;;;5099819;28;20081;-82
2020/12/13 02:22:08;;;;;;;36.03;15.68;;;6.90;99.90;;;;;;5099570;28;20032;-83
2020/12/13 02:24:34;;;;;;;41.00;15.95;;;6.80;99.90;;;;;;5101169;28;20122;-82
2020/12/13 02:27:08;;;;;;;36.72;15.68;;;6.60;99.90;;;;;;5099905;28;20078;-82
2020/12/13 02:29:35;;;;;;;39.33;16.58;;;6.60;99.90;;;;;;5100946;28;20101;-82
2020/12/13 02:32:01;;;;;;;38.92;17.38;;;6.60;99.90;;;;;;5099424;28;20040;-83
2020/12/13 02:34:26;;;;;;;42.25;16.85;;;6.50;99.90;;;;;;5101487;28;20039;-82
2020/12/13 02:36:52;;;;;;;46.10;17.48;;;;;;;;;;5100155;28;20036;-82
2020/12/13 02:39:19;;;;;;;43.33;17.67;;;6.50;99.90;;;;;;5100847;28;20066;-82
2020/12/13 02:41:57;;;;;;;47.25;17.65;;;6.50;99.90;;;;;;5101254;28;20040;-82
2020/12/13 02:44:24;;;;;;;47.40;18.67;;;6.50;99.90;;;;;;5100572;28;20040;-82
2020/12/13 02:46:49;;;;;;;41.60;18.33;;;6.40;99.90;;;;;;5101888;28;20110;-82
2020/12/13 02:49:15;;;;;;;42.63;17.30;;;6.50;99.90;;;;;;5099374;28;20536;-82
2020/12/13 02:51:40;;;;;;;39.42;16.25;;;6.40;99.90;;;;;;5101895;28;20040;-82
2020/12/13 02:54:06;;;;;;;49.88;19.15;;;6.50;99.90;;;;;;5101574;28;20070;-81
2020/12/13 02:56:38;;;;;;;53.05;18.08;;;6.40;99.90;;;;;;5100240;28;20044;-81
2020/12/13 02:59:04;;;;;;;50.83;19.05;;;6.40;99.90;;;;;;5099222;28;20044;-83
2020/12/13 03:01:30;;;;;;;49.90;19.15;;;6.40;99.90;;;;;;5100107;28;20082;-83
2020/12/13 03:03:55;;;;;;;51.42;18.83;;;6.50;99.90;;;;;;5099260;28;20134;-82
2020/12/13 03:06:21;;;;;;;54.10;18.75;;;6.40;99.90;;;;;;5099537;28;20052;-82
2020/12/13 03:08:47;;;;;;;45.80;18.30;;;6.50;99.90;;;;;;5099387;28;20485;-83
2020/12/13 03:11:12;;;;;;;42.63;16.30;;;6.40;99.90;;;;;;5099675;28;20040;-83
2020/12/13 03:13:39;;;;;;;46.25;17.95;;;6.50;99.90;;;;;;5097378;28;20079;-80
2020/12/13 03:16:05;;;;;;;51.03;19.67;;;6.50;99.90;;;;;;5087261;28;20063;-81
2020/12/13 03:18:30;;;;;;;49.85;18.33;;;6.50;99.90;;;;;;5096858;28;20493;-80
2020/12/13 03:20:56;;;;;;;48.17;18.70;;;6.50;99.90;;;;;;5098384;28;20043;-81
2020/12/13 03:23:21;;;;;;;49.33;17.40;;;6.60;99.90;;;;;;5100472;28;20060;-81
2020/12/13 03:25:47;;;;;;;44.97;16.80;;;;;;;;;;5099720;28;20117;-81
2020/12/13 03:28:13;;;;;;;54.42;20.25;;;;;;;;;;5098273;28;20059;-81
2020/12/13 03:30:40;;;;;;;47.47;18.33;;;;;;;;;;5098960;28;20513;-83
2020/12/13 03:33:06;;;;;;;47.50;18.55;;;;;;;;;;5100703;28;20036;-80
2020/12/13 03:35:31;;;;;;;64.50;22.02;;;6.40;99.90;;;;;;5100016;28;20444;-80
2020/12/13 03:37:57;;;;;;;51.47;18.88;;;6.40;99.90;;;;;;5097126;28;20128;-81
2020/12/13 03:40:23;;;;;;;56.42;19.48;;;6.40;99.90;;;;;;5100753;28;20035;-82
2020/12/13 03:42:48;;;;;;;48.35;18.40;;;6.40;99.90;;;;;;5100751;28;20052;-81
2020/12/13 03:45:14;;;;;;;45.35;18.10;;;6.50;99.90;;;;;;5101351;28;20040;-80
2020/12/13 03:47:40;;;;;;;49.88;19.23;;;6.40;99.90;;;;;;5100611;28;20409;-83
2020/12/13 03:50:06;;;;;;;55.40;19.35;;;;;;;;;;5097940;28;20046;-81
2020/12/13 03:52:32;;;;;;;54.22;20.00;;;6.40;99.90;;;;;;5100889;28;20044;-83
2020/12/13 03:54:58;;;;;;;60.47;20.70;;;6.30;99.90;;;;;;5101044;28;20485;-83
2020/12/13 03:57:24;;;;;;;61.80;20.23;;;;;;;;;;5103087;28;20046;-83
2020/12/13 03:59:50;;;;;;;61.42;20.25;;;;;;;;;;5100199;28;20040;-83
2020/12/13 04:02:15;;;;;;;64.45;21.58;;;6.40;99.90;;;;;;5102378;28;20478;-82
2020/12/13 04:04:42;;;;;;;68.43;23.33;;;6.40;99.90;;;;;;5100442;28;20107;-82
2020/12/13 04:07:07;;;;;;;66.45;21.45;;;6.40;99.90;;;;;;5102156;28;20072;-83
2020/12/13 04:09:33;;;;;;;70.53;21.00;;;;;;;;;;5100782;28;20047;-80
2020/12/13 04:11:59;;;;;;;74.03;23.38;;;6.40;99.90;;;;;;5102483;28;20040;-83
2020/12/13 04:14:25;;;;;;;67.40;21.38;;;6.40;99.90;;;;;;5101179;28;20130;-84
2020/12/13 04:16:50;;;;;;;64.78;22.05;;;6.40;99.90;;;;;;5104739;28;20044;-81
2020/12/13 04:19:16;;;;;;;62.45;22.67;;;6.40;99.90;;;;;;5109889;28;20035;-82
2020/12/13 04:21:43;;;;;;;77.88;24.20;;;6.50;99.90;;;;;;5107003;28;20050;-82
2020/12/13 04:24:09;;;;;;;78.20;23.73;;;6.50;99.90;;;;;;5103868;28;20428;-80
2020/12/13 04:26:35;;;;;;;76.15;23.23;;;;;;;;;;5109357;28;20075;-82
2020/12/13 04:29:00;;;;;;;81.22;24.00;;;6.40;99.90;;;;;;5108918;28;20071;-83
2020/12/13 04:31:26;;;;;;;77.35;24.48;;;6.40;99.90;;;;;;5099079;28;20040;-82
2020/12/13 04:33:51;;;;;;;97.47;28.73;;;6.50;99.90;;;;;;5100939;28;20040;-83
2020/12/13 04:36:17;;;;;;;90.07;25.05;;;6.50;99.90;;;;;;5099600;28;20047;-83
2020/12/13 04:38:44;;;;;;;78.88;25.95;;;6.50;99.90;;;;;;5097757;28;20497;-82
2020/12/13 04:41:09;;;;;;;89.03;26.63;;;6.60;99.90;;;;;;5097697;28;20066;-81
2020/12/13 04:43:35;;;;;;;88.55;27.45;;;;;;;;;;5098071;28;20521;-81
2020/12/13 04:46:01;;;;;;;95.88;26.45;;;6.60;99.90;;;;;;5097768;28;20036;-79
2020/12/13 04:48:27;;;;;;;92.65;27.88;;;6.50;99.90;;;;;;5095794;28;20047;-80
2020/12/13 04:50:53;;;;;;;92.05;27.42;;;6.60;99.90;;;;;;5097326;28;20039;-80
2020/12/13 04:53:19;;;;;;;98.85;27.45;;;6.50;99.90;;;;;;5098035;28;20040;-82
2020/12/13 04:55:53;;;;;;;88.55;26.58;;;6.50;99.90;;;;;;5097877;28;20039;-82
2020/12/13 04:58:21;;;;;;;81.63;25.92;;;6.50;99.90;;;;;;5096257;28;20413;-81
2020/12/13 05:00:53;;;;;;;92.03;27.50;;;6.60;99.90;;;;;;5098112;28;20040;-81
2020/12/13 05:03:18;;;;;;;108.75;28.45;;;6.60;99.90;;;;;;5094907;28;20032;-80
2020/12/13 05:05:45;;;;;;;95.63;29.85;;;6.60;99.90;;;;;;5093410;28;20042;-79
2020/12/13 05:08:10;;;;;;;97.80;28.42;;;6.60;99.90;;;;;;5094944;28;20044;-79
2020/12/13 05:10:38;;;;;;;104.93;28.65;;;6.60;99.90;;;;;;5093902;28;20062;-81
2020/12/13 05:13:05;;;;;;;107.65;29.52;;;;;;;;;;5097692;28;20035;-80
2020/12/13 05:15:30;;;;;;;107.28;31.60;;;6.60;99.90;;;;;;5095074;28;20048;-80
2020/12/13 05:17:58;;;;;;;110.00;30.15;;;6.70;99.90;;;;;;5097721;28;20044;-81
2020/12/13 05:20:24;;;;;;;128.70;31.48;;;6.70;99.90;;;;;;5096194;28;20447;-80
2020/12/13 05:22:50;;;;;;;98.55;28.50;;;6.70;99.90;;;;;;5094312;28;20093;-80
2020/12/13 05:25:16;;;;;;;101.57;31.85;;;6.70;99.90;;;;;;5097617;28;20040;-81
2020/12/13 05:27:41;;;;;;;115.00;32.58;;;6.70;99.90;;;;;;5095973;28;20081;-81
2020/12/13 05:30:09;;;;;;;123.13;32.53;;;6.70;99.90;;;;;;5095158;28;20405;-81
2020/12/13 05:32:35;;;;;;;116.05;32.40;;;6.70;99.90;;;;;;5097046;28;20044;-81
2020/12/13 05:35:01;;;;;;;129.00;34.03;;;;;;;;;;5097110;28;20460;-80
2020/12/13 05:37:29;;;;;;;117.80;32.45;;;6.70;99.90;;;;;;5096279;28;20044;-81
2020/12/13 05:39:55;;;;;;;134.38;34.13;;;;;;;;;;5096079;28;20433;-80
2020/12/13 05:42:31;;;;;;;134.43;33.38;;;6.70;99.90;;;;;;5096870;28;20035;-81
2020/12/13 05:45:21;;;;;;;135.63;36.13;;;;;;;;;;5095728;28;20092;-81
2020/12/13 05:50:48;;;;;;;136.52;34.33;;;6.70;99.90;;;;;;5097523;28;20055;-82
2020/12/13 05:53:14;;;;;;;123.47;33.83;;;6.70;99.90;;;;;;5098428;28;20553;-83
2020/12/13 05:55:40;;;;;;;135.55;34.42;;;6.70;99.90;;;;;;5097457;28;20429;-81
2020/12/13 05:58:06;;;;;;;119.90;31.92;;;;;;;;;;5097140;28;20051;-80
2020/12/13 06:00:33;;;;;;;132.68;32.92;;;6.70;99.90;;;;;;5097052;28;20044;-81
2020/12/13 06:03:03;;;;;;;131.85;33.50;;;6.70;99.90;;;;;;5097861;28;20127;-80
2020/12/13 06:05:33;;;;;;;126.95;34.58;;;6.70;99.90;;;;;;5096078;28;20044;-82
2020/12/13 06:08:03;;;;;;;133.25;34.88;;;6.80;99.90;;;;;;5097078;28;20036;-81
2020/12/13 06:10:34;;;;;;;130.82;32.42;;;6.80;99.90;;;;;;5097765;28;20064;-81
2020/12/13 06:13:01;;;;;;;134.13;33.40;;;6.70;99.90;;;;;;5098300;28;20426;-80
2020/12/13 06:15:29;;;;;;;130.05;31.23;;;6.80;99.90;;;;;;5096513;28;20473;-83
2020/12/13 06:17:54;;;;;;;121.30;30.88;;;6.80;99.90;;;;;;5097644;28;20105;-82
2020/12/13 06:20:21;;;;;;;135.95;32.83;;;6.80;99.90;;;;;;5096215;28;20467;-82
2020/12/13 06:22:50;;;;;;;127.53;32.13;;;6.70;99.90;;;;;;5096817;28;20539;-84
2020/12/13 06:25:16;;;;;;;123.00;31.52;;;6.80;99.90;;;;;;5098098;28;20053;-82
2020/12/13 06:27:42;;;;;;;119.57;31.85;;;6.80;99.90;;;;;;5098645;28;20047;-83
2020/12/13 06:30:08;;;;;;;126.13;31.92;;;6.80;99.90;;;;;;5096388;28;20039;-82
2020/12/13 06:32:41;;;;;;;126.28;31.98;;;6.80;99.90;;;;;;5098542;28;20040;-84
2020/12/13 06:35:08;;;;;;;122.45;30.45;;;6.80;99.90;;;;;;5098108;28;20042;-84
2020/12/13 06:37:37;;;;;;;126.07;29.60;;;6.90;99.90;;;;;;5097015;28;20051;-83
2020/12/13 06:40:07;;;;;;;125.07;31.73;;;6.90;99.90;;;;;;5095082;28;20048;-83
2020/12/13 06:42:38;;;;;;;132.15;31.40;;;6.90;99.90;;;;;;5100235;28;20058;-84
2020/12/13 06:45:05;;;;;;;105.53;28.60;;;6.90;99.90;;;;;;5102610;28;20039;-82
2020/12/13 06:47:31;;;;;;;113.00;28.70;;;6.90;99.90;;;;;;5103111;28;20044;-83
2020/12/13 06:49:57;;;;;;;126.43;29.33;;;6.90;99.90;;;;;;5102121;28;20044;-82
2020/12/13 06:52:31;;;;;;;106.05;28.25;;;6.90;99.90;;;;;;5100808;28;20040;-83
2020/12/13 06:55:00;;;;;;;110.72;29.10;;;7.00;99.90;;;;;;5102805;28;20097;-83
2020/12/13 06:57:28;;;;;;;129.00;29.70;;;7.00;99.90;;;;;;5101368;28;20052;-83
2020/12/13 06:59:55;;;;;;;116.15;29.38;;;7.00;99.90;;;;;;5099994;28;20043;-81
2020/12/13 07:02:43;;;;;;;122.95;31.00;;;7.00;99.90;;;;;;5097874;28;20047;-81
2020/12/13 07:05:09;;;;;;;122.05;30.50;;;7.00;99.90;;;;;;5096947;28;20039;-81
2020/12/13 07:07:37;;;;;;;121.15;29.88;;;7.10;99.90;;;;;;5098525;28;20038;-81
2020/12/13 07:10:06;;;;;;;113.80;28.48;;;7.00;99.90;;;;;;5096269;28;20039;-81
2020/12/13 07:12:32;;;;;;;104.32;28.13;;;7.00;99.90;;;;;;5097220;28;20068;-82
2020/12/13 07:14:58;;;;;;;105.47;27.83;;;7.10;99.90;;;;;;5096645;28;20051;-82
2020/12/13 07:17:29;;;;;;;109.47;29.80;;;7.10;99.90;;;;;;5097595;28;20044;-82
2020/12/13 07:19:55;;;;;;;109.13;26.58;;;;;;;;;;5096144;28;20039;-82
2020/12/13 07:22:21;;;;;;;116.65;29.08;;;7.20;99.90;;;;;;5096473;28;20085;-81
2020/12/13 07:24:46;;;;;;;112.43;27.95;;;7.10;99.90;;;;;;5098235;28;20044;-82
2020/12/13 07:27:13;;;;;;;109.50;28.67;;;7.20;99.90;;;;;;5095987;28;20040;-81
2020/12/13 07:29:38;;;;;;;110.30;29.08;;;7.10;99.90;;;;;;5095362;28;20036;-82
2020/12/13 07:32:06;;;;;;;116.68;29.35;;;7.10;99.90;;;;;;5097570;28;20097;-81
2020/12/13 07:34:32;;;;;;;99.88;26.92;;;7.10;99.90;;;;;;5095930;28;20077;-81
2020/12/13 07:36:58;;;;;;;109.97;28.00;;;7.20;99.90;;;;;;5095513;28;20452;-81
2020/12/13 07:39:24;;;;;;;100.43;29.20;;;7.10;99.90;;;;;;5096465;28;20480;-81
2020/12/13 07:41:50;;;;;;;114.05;28.58;;;7.10;99.90;;;;;;5097188;28;20115;-81
2020/12/13 07:44:18;;;;;;;111.20;29.92;;;7.20;99.90;;;;;;5095523;28;20075;-81
2020/12/13 07:46:44;;;;;;;107.88;29.55;;;7.10;99.90;;;;;;5095367;28;20118;-81
2020/12/13 07:49:11;;;;;;;108.07;28.80;;;7.20;99.90;;;;;;5096516;28;20086;-82
2020/12/13 07:51:38;;;;;;;104.10;28.02;;;7.10;99.90;;;;;;5095989;28;20040;-81
2020/12/13 07:54:11;;;;;;;117.25;29.45;;;7.20;99.90;;;;;;5096334;28;20394;-81
2020/12/13 07:56:37;;;;;;;104.22;27.25;;;7.20;99.90;;;;;;5096778;28;20032;-82
2020/12/13 07:59:11;;;;;;;109.60;28.75;;;7.20;99.90;;;;;;5095804;28;20501;-82
2020/12/13 08:01:37;;;;;;;111.60;28.55;;;7.30;99.90;;;;;;5097629;28;20066;-82
2020/12/13 08:04:03;;;;;;;112.90;26.88;;;7.30;99.90;;;;;;5096911;28;20036;-81
2020/12/13 08:06:29;;;;;;;98.07;27.38;;;7.30;99.90;;;;;;5095674;28;20036;-81
2020/12/13 08:08:55;;;;;;;97.25;27.08;;;7.30;99.90;;;;;;5096214;28;20036;-82
2020/12/13 08:11:21;;;;;;;100.40;27.90;;;7.20;99.90;;;;;;5096993;28;20066;-82
2020/12/13 08:13:48;;;;;;;105.65;26.48;;;7.20;99.90;;;;;;5095150;28;20089;-81
2020/12/13 08:16:15;;;;;;;92.50;24.80;;;7.20;99.90;;;;;;5094806;28;20039;-81
2020/12/13 08:18:45;;;;;;;103.28;26.77;;;7.20;99.90;;;;;;5095913;28;20493;-82
2020/12/13 08:21:14;;;;;;;87.88;24.73;;;7.30;99.90;;;;;;5096510;28;20075;-82
2020/12/13 08:23:40;;;;;;;83.53;24.23;;;7.30;99.90;;;;;;5095259;28;20093;-82
2020/12/13 08:26:08;;;;;;;86.55;24.17;;;7.30;99.90;;;;;;5095156;28;20647;-81
2020/12/13 08:28:34;;;;;;;73.30;21.52;;;7.30;99.90;;;;;;5096388;28;20040;-82
2020/12/13 08:31:01;;;;;;;77.35;21.45;;;7.30;99.90;;;;;;5094738;28;20043;-82
2020/12/13 08:33:27;;;;;;;69.53;20.48;;;7.40;99.90;;;;;;5095312;28;20036;-82
2020/12/13 08:35:53;;;;;;;80.47;22.25;;;7.40;99.90;;;;;;5095275;28;20387;-82
2020/12/13 08:38:21;;;;;;;72.60;20.42;;;7.40;99.90;;;;;;5095168;28;20044;-81
2020/12/13 08:40:47;;;;;;;76.13;21.42;;;7.30;99.90;;;;;;5094480;28;20061;-81
2020/12/13 08:43:20;;;;;;;75.55;21.35;;;7.30;99.90;;;;;;5094575;28;20512;-81
2020/12/13 08:45:53;;;;;;;71.32;20.55;;;7.20;99.90;;;;;;5095012;28;20459;-82
2020/12/13 08:48:25;;;;;;;71.68;20.17;;;7.20;99.90;;;;;;5093976;28;20443;-81
2020/12/13 08:51:07;;;;;;;71.63;20.30;;;7.30;99.90;;;;;;5095957;28;20123;-82
2020/12/13 08:53:33;;;;;;;65.82;20.17;;;;;;;;;;5095876;28;20050;-82
2020/12/13 08:56:02;;;;;;;71.30;19.90;;;7.30;99.90;;;;;;5096040;28;20050;-81
2020/12/13 08:58:28;;;;;;;56.78;17.77;;;7.30;99.90;;;;;;5095312;28;20481;-82
2020/12/13 09:01:04;;;;;;;59.72;18.50;;;7.30;99.90;;;;;;5096131;28;20043;-82
2020/12/13 09:03:29;;;;;;;72.20;19.45;;;7.30;99.90;;;;;;5096323;28;20428;-82
2020/12/13 09:05:55;;;;;;;59.55;18.60;;;7.30;99.90;;;;;;5095312;28;20044;-82
2020/12/13 09:08:23;;;;;;;68.10;19.60;;;;;;;;;;5095172;28;20058;-82
2020/12/13 09:10:49;;;;;;;62.90;19.42;;;7.40;99.90;;;;;;5094060;28;20048;-82
2020/12/13 09:13:15;;;;;;;57.10;18.20;;;7.30;99.90;;;;;;5096666;28;20032;-81
2020/12/13 09:15:40;;;;;;;56.47;17.85;;;7.40;99.90;;;;;;5096431;28;20085;-82
2020/12/13 09:18:06;;;;;;;58.92;18.20;;;7.40;99.90;;;;;;5095659;28;20040;-81
2020/12/13 09:20:34;;;;;;;58.90;19.13;;;7.30;99.90;;;;;;5094304;28;20042;-83
2020/12/13 09:23:01;;;;;;;52.20;18.17;;;7.30;99.90;;;;;;5094843;28;20036;-81
2020/12/13 09:25:28;;;;;;;54.28;17.05;;;;;;;;;;5094788;28;20047;-81
2020/12/13 09:28:00;;;;;;;47.72;16.55;;;7.40;99.90;;;;;;5095481;28;20048;-81
2020/12/13 09:30:26;;;;;;;58.50;17.77;;;;;;;;;;5094777;28;20506;-82
2020/12/13 09:32:52;;;;;;;51.88;17.08;;;7.30;99.90;;;;;;5096158;28;20036;-82
2020/12/13 09:35:18;;;;;;;51.50;18.35;;;;;;;;;;5106990;28;20038;-81
2020/12/13 09:37:43;;;;;;;43.13;16.90;;;7.30;99.90;;;;;;5115119;28;20055;-83
2020/12/13 09:40:09;;;;;;;49.97;17.25;;;7.30;99.90;;;;;;5116942;28;20040;-82
2020/12/13 09:42:35;;;;;;;47.65;17.15;;;7.20;99.90;;;;;;5104922;28;20047;-83
2020/12/13 09:45:01;;;;;;;47.10;17.77;;;7.30;99.90;;;;;;5099207;28;20055;-83
2020/12/13 09:47:26;;;;;;;46.97;17.70;;;7.30;99.90;;;;;;5097549;28;20028;-83
2020/12/13 09:49:52;;;;;;;58.13;19.70;;;7.40;99.90;;;;;;5099173;28;20513;-83
2020/12/13 09:52:18;;;;;;;56.50;20.65;;;7.40;99.90;;;;;;5099504;28;20063;-83
2020/12/13 09:54:43;;;;;;;48.47;18.52;;;7.40;99.90;;;;;;5098776;28;20103;-82
2020/12/13 09:57:09;;;;;;;50.42;18.65;;;7.50;99.90;;;;;;5098687;28;20409;-81
2020/12/13 09:59:35;;;;;;;47.95;17.20;;;7.50;99.90;;;;;;5097839;28;20474;-81
2020/12/13 10:02:01;;;;;;;52.47;19.17;;;;;;;;;;5098904;28;20047;-82
2020/12/13 10:04:27;;;;;;;44.95;18.55;;;7.60;99.90;;;;;;5098817;28;20405;-81
2020/12/13 10:07:12;;;;;;;51.92;18.10;;;7.60;99.90;;;;;;5099537;28;20086;-81
2020/12/13 10:09:37;;;;;;;46.83;18.77;;;7.50;99.90;;;;;;5096941;28;20132;-81
2020/12/13 10:12:03;;;;;;;50.70;19.38;;;7.50;99.90;;;;;;5099443;28;20490;-82
2020/12/13 10:14:29;;;;;;;48.80;17.40;;;7.60;99.90;;;;;;5098694;28;20065;-81
2020/12/13 10:16:56;;;;;;;48.97;18.70;;;7.60;99.90;;;;;;5100216;28;20040;-80
2020/12/13 10:19:21;;;;;;;50.80;19.13;;;7.60;99.90;;;;;;5100438;28;20036;-81
2020/12/13 10:21:47;;;;;;;55.38;18.65;;;7.60;99.90;;;;;;5102536;28;20153;-81
2020/12/13 10:24:13;;;;;;;60.88;18.48;;;7.70;99.90;;;;;;5102115;28;20040;-81
2020/12/13 10:26:39;;;;;;;50.75;18.45;;;;;;;;;;5101451;28;20050;-81
2020/12/13 10:29:06;;;;;;;62.95;19.73;;;7.70;99.90;;;;;;5100024;28;20044;-82
2020/12/13 10:31:33;;;;;;;47.00;19.17;;;7.70;99.90;;;;;;5100150;28;20059;-81
2020/12/13 10:34:00;;;;;;;60.75;20.17;;;;;;;;;;5099634;28;20485;-81
2020/12/13 10:36:26;;;;;;;51.78;19.88;;;;;;;;;;5101102;28;20040;-82
2020/12/13 10:38:53;;;;;;;58.13;20.48;;;7.70;99.90;;;;;;5099336;28;20072;-82
2020/12/13 10:41:20;;;;;;;52.92;19.40;;;7.70;99.90;;;;;;5101073;28;20054;-82
2020/12/13 10:43:45;;;;;;;60.92;21.05;;;7.80;99.90;;;;;;5099385;28;20066;-82
2020/12/13 10:46:11;;;;;;;57.05;21.40;;;7.70;99.90;;;;;;5099087;28;20036;-81
2020/12/13 10:48:37;;;;;;;57.97;19.33;;;7.60;99.90;;;;;;5100166;28;20073;-82
2020/12/13 10:51:03;;;;;;;54.60;20.02;;;7.70;99.90;;;;;;5101182;28;20128;-82
2020/12/13 10:53:29;;;;;;;64.28;21.30;;;7.70;99.90;;;;;;5100645;28;20113;-81
2020/12/13 10:55:55;;;;;;;60.42;21.65;;;7.70;99.90;;;;;;5101191;28;20497;-82
2020/12/13 10:58:21;;;;;;;60.30;20.38;;;7.60;99.90;;;;;;5101048;28;20036;-81
2020/12/13 11:00:47;;;;;;;59.95;19.67;;;7.70;99.90;;;;;;5100011;28;20047;-82
2020/12/13 11:03:13;;;;;;;53.13;19.50;;;7.70;99.90;;;;;;5100387;28;20481;-81
2020/12/13 11:05:38;;;;;;;63.55;22.23;;;7.80;99.90;;;;;;5098688;28;20050;-81
2020/12/13 11:08:05;;;;;;;56.95;21.08;;;7.80;99.90;;;;;;5098356;28;20035;-81
2020/12/13 11:10:30;;;;;;;60.65;20.88;;;7.80;99.90;;;;;;5099251;28;20500;-82
2020/12/13 11:12:57;;;;;;;58.88;21.10;;;7.90;99.90;;;;;;5099713;28;20032;-81
2020/12/13 11:15:23;;;;;;;69.70;23.20;;;7.90;99.90;;;;;;5096036;28;20500;-81
2020/12/13 11:17:48;;;;;;;58.05;21.48;;;7.90;99.90;;;;;;5097006;28;20118;-80
2020/12/13 11:20:14;;;;;;;59.45;21.23;;;7.80;99.90;;;;;;5096638;28;20081;-80
2020/12/13 11:22:40;;;;;;;60.08;22.23;;;7.90;99.90;;;;;;5097570;28;20036;-80
2020/12/13 11:25:06;;;;;;;62.13;21.75;;;7.90;99.90;;;;;;5095908;28;20554;-80
2020/12/13 11:27:33;;;;;;;56.05;20.67;;;7.80;99.90;;;;;;5094809;28;20072;-80
2020/12/13 11:29:58;;;;;;;58.08;21.58;;;7.90;99.90;;;;;;5094418;28;20464;-81
2020/12/13 11:32:25;;;;;;;57.45;20.73;;;7.90;99.90;;;;;;5097550;28;20059;-81
2020/12/13 11:34:51;;;;;;;61.33;21.92;;;7.80;99.90;;;;;;5095946;28;20040;-81
2020/12/13 11:37:18;;;;;;;66.88;22.95;;;7.80;99.90;;;;;;5095710;28;20036;-80
2020/12/13 11:39:44;;;;;;;60.47;21.48;;;7.80;99.90;;;;;;5096839;28;20040;-81
2020/12/13 11:42:11;;;;;;;62.55;21.75;;;7.80;99.90;;;;;;5095603;28;20379;-80
2020/12/13 11:44:37;;;;;;;64.30;23.33;;;;;;;;;;5097211;28;20123;-80
2020/12/13 11:47:03;;;;;;;57.70;21.50;;;7.90;99.90;;;;;;5094566;28;20071;-81
2020/12/13 11:49:28;;;;;;;64.20;22.40;;;8.00;99.90;;;;;;5095170;28;20485;-80
2020/12/13 11:51:54;;;;;;;65.65;23.17;;;8.00;99.90;;;;;;5095396;28;20044;-80
2020/12/13 11:54:19;;;;;;;70.65;23.13;;;8.00;99.90;;;;;;5095686;28;20050;-80
2020/12/13 11:56:45;;;;;;;63.88;21.05;;;8.00;99.90;;;;;;5095536;28;20040;-80
2020/12/13 11:59:11;;;;;;;72.95;23.02;;;8.00;99.90;;;;;;5094924;28;20069;-80
2020/12/13 12:01:37;;;;;;;70.95;21.33;;;;;;;;;;5095281;28;20131;-80
2020/12/13 12:04:03;;;;;;;67.32;22.50;;;8.10;99.90;;;;;;5095516;28;20461;-80
2020/12/13 12:06:29;;;;;;;66.35;21.88;;;8.20;99.90;;;;;;5096614;28;20055;-80
2020/12/13 12:08:55;;;;;;;64.50;22.38;;;;;;;;;;5095857;28;20485;-80
2020/12/13 12:11:21;;;;;;;63.72;19.65;;;8.20;99.90;;;;;;5094580;28;20040;-80
2020/12/13 12:13:47;;;;;;;63.42;22.42;;;8.20;99.90;;;;;;5096453;28;20036;-80
2020/12/13 12:16:14;;;;;;;62.28;21.80;;;8.20;99.90;;;;;;5095056;28;20051;-80
2020/12/13 12:18:39;;;;;;;63.95;21.20;;;8.20;99.90;;;;;;5096188;28;20055;-80
2020/12/13 12:21:05;;;;;;;65.43;21.65;;;8.20;99.90;;;;;;5095081;28;20043;-80
2020/12/13 12:23:31;;;;;;;68.82;21.85;;;8.20;99.90;;;;;;5094725;28;20115;-80
2020/12/13 12:25:57;;;;;;;71.53;21.63;;;;;;;;;;5096331;28;20043;-80
2020/12/13 12:28:22;;;;;;;64.93;21.00;;;8.20;99.90;;;;;;5096302;28;20079;-80
2020/12/13 12:30:48;;;;;;;66.57;20.70;;;8.30;99.90;;;;;;5094082;28;20085;-80
2020/12/13 12:33:14;;;;;;;53.80;19.40;;;8.20;99.90;;;;;;5096268;28;20090;-80
2020/12/13 12:35:43;;;;;;;55.83;19.77;;;8.20;99.90;;;;;;5094774;28;20050;-81
2020/12/13 12:38:09;;;;;;;56.67;19.70;;;8.20;99.90;;;;;;5096099;28;20028;-80
2020/12/13 12:40:34;;;;;;;58.22;20.52;;;8.30;99.90;;;;;;5095616;28;20035;-80
2020/12/13 12:43:00;;;;;;;59.75;20.10;;;8.30;99.90;;;;;;5094655;28;20036;-81
2020/12/13 12:45:25;;;;;;;60.95;19.88;;;8.30;99.90;;;;;;5096121;28;20074;-80
2020/12/13 12:47:51;;;;;;;58.95;20.10;;;8.30;99.90;;;;;;5093930;28;20057;-80
2020/12/13 12:50:18;;;;;;;54.45;19.05;;;8.30;99.90;;;;;;5095442;28;20043;-80